Salinas Municipal Airport
KSNS : now visible

Airfield :











YOU CAN JOIN US ON...

 
LOGIN :

Register | Disclaimer

   EN    FR    IT 

 









Legend :    VFR   Marginal VFR   IFR   Intensive IFR   Very Intensive IFR
Visi :
Ceiling :
>= 8 km
>= 3000ft
5 to 8 km
1000 to 3000 ft
1500m to 5 km
500 to 1000 ft
800 to 1500m
200 to 500 ft
< 800m
< 200 ft
Symbols :   Thunderstorms  Fog  Heavy snow  Heavy precipitations  Wind > 20 kt






- Airport Elevation : 85 ft


KSNS - Salinas Municipal

CURRENT METAR :
  • 151253Z AUTO 00000KT 10SM CLR 07/05 A3014 RMK AO2 SLP214 T00720050

EXPIRED METARs :
  • 151153Z AUTO 00000KT 10SM CLR 07/05 A3013 RMK AO2 SLP210 60000 70001 T00670050 10106 20067 53013
  • 151053Z AUTO 27006KT 10SM FEW050 07/06 A3011 RMK AO2 SLP206 T00720056

TAF KSNS
Valid from the 15 at 12:00 until the 16 at 12:00 UTC


151140Z 1512/1612 28005KT P6SM FEW030 SCT050
FM151500 28005KT P6SM FEW030
FM152000 28008KT P6SM SCT035
FM160300 25005KT P6SM FEW030 SCT200
FM160800 12005KT P6SM FEW030 SCT200



MET'MAP, your aeronautical weather chart ! - Copyright ORBIFLY December 2007 - Disclaimer

ORBIFLY MET'MAP TEAM :

Programming & Development : Alexandra Zaïnal
Concept & original design : Baudouin d'Aumeries
Assistance for programming : Marc-Olivier Méhu
Technical & hardware support : Manuel Goepfert

Contact : metmap@orbifly.com




SOURCES & CREDITS :

   NOAA       Earth
Advisory